sensor_id;sensor_type;location;lat;lon;timestamp;pressure;altitude;pressure_sealevel;temperature;humidity
13013;BME280;22580;57.670;12.006;2023-04-06T00:02:26;101852.75;;;12.28;44.64
13013;BME280;22580;57.670;12.006;2023-04-06T00:04:56;101906.16;;;13.03;43.86
13013;BME280;22580;57.670;12.006;2023-04-06T00:07:27;101895.34;;;12.91;43.97
13013;BME280;22580;57.670;12.006;2023-04-06T00:09:55;101913.34;;;13.03;43.25
13013;BME280;22580;57.670;12.006;2023-04-06T00:12:26;101912.03;;;12.82;43.40
13013;BME280;22580;57.670;12.006;2023-04-06T00:14:55;101909.31;;;12.67;43.81
13013;BME280;22580;57.670;12.006;2023-04-06T00:17:28;101908.53;;;12.51;43.65
13013;BME280;22580;57.670;12.006;2023-04-06T00:19:57;101837.59;;;11.82;44.50
13013;BME280;22580;57.670;12.006;2023-04-06T00:22:28;101904.75;;;11.79;45.46
13013;BME280;22580;57.670;12.006;2023-04-06T00:24:58;101821.06;;;11.29;45.30
13013;BME280;22580;57.670;12.006;2023-04-06T00:27:27;101902.59;;;11.86;45.08
13013;BME280;22580;57.670;12.006;2023-04-06T00:29:55;101893.44;;;11.90;44.97
13013;BME280;22580;57.670;12.006;2023-04-06T00:32:26;101901.16;;;12.10;44.91
13013;BME280;22580;57.670;12.006;2023-04-06T00:34:56;101901.13;;;12.40;44.02
13013;BME280;22580;57.670;12.006;2023-04-06T00:37:29;101863.72;;;12.09;43.95
13013;BME280;22580;57.670;12.006;2023-04-06T00:39:56;101880.72;;;12.38;43.22
13013;BME280;22580;57.670;12.006;2023-04-06T00:42:26;101851.00;;;12.27;42.95
13013;BME280;22580;57.670;12.006;2023-04-06T00:44:58;101889.66;;;12.53;42.95
13013;BME280;22580;57.670;12.006;2023-04-06T00:47:28;101886.88;;;11.33;44.84
13013;BME280;22580;57.670;12.006;2023-04-06T00:49:57;101868.03;;;12.11;43.78
13013;BME280;22580;57.670;12.006;2023-04-06T00:52:27;101889.41;;;12.27;43.25
13013;BME280;22580;57.670;12.006;2023-04-06T00:54:58;101836.72;;;11.21;44.25
13013;BME280;22580;57.670;12.006;2023-04-06T00:57:28;101850.81;;;11.86;43.24
13013;BME280;22580;57.670;12.006;2023-04-06T00:59:56;101860.09;;;12.10;42.83
13013;BME280;22580;57.670;12.006;2023-04-06T01:02:23;101870.00;;;12.38;42.29
13013;BME280;22580;57.670;12.006;2023-04-06T01:04:50;101880.00;;;12.64;41.81
13013;BME280;22580;57.670;12.006;2023-04-06T01:07:19;101880.03;;;12.34;42.05
13013;BME280;22580;57.670;12.006;2023-04-06T01:09:48;101857.41;;;12.10;42.40
13013;BME280;22580;57.670;12.006;2023-04-06T01:12:18;101862.44;;;12.44;42.26
13013;BME280;22580;57.670;12.006;2023-04-06T01:14:48;101884.13;;;12.11;42.59
13013;BME280;22580;57.670;12.006;2023-04-06T01:17:15;101869.75;;;12.57;41.72
13013;BME280;22580;57.670;12.006;2023-04-06T01:19:43;101871.47;;;12.13;42.34
13013;BME280;22580;57.670;12.006;2023-04-06T01:22:17;101867.59;;;12.33;42.02
13013;BME280;22580;57.670;12.006;2023-04-06T01:24:49;101858.22;;;12.40;41.70
13013;BME280;22580;57.670;12.006;2023-04-06T01:27:29;101850.19;;;12.55;41.67
13013;BME280;22580;57.670;12.006;2023-04-06T01:30:09;101868.50;;;12.62;41.24
13013;BME280;22580;57.670;12.006;2023-04-06T01:32:46;101863.03;;;12.50;41.24
13013;BME280;22580;57.670;12.006;2023-04-06T01:35:17;101859.34;;;12.22;41.89
13013;BME280;22580;57.670;12.006;2023-04-06T01:37:48;101867.34;;;12.52;41.54
13013;BME280;22580;57.670;12.006;2023-04-06T01:40:18;101858.34;;;12.53;41.59
13013;BME280;22580;57.670;12.006;2023-04-06T01:42:49;101859.88;;;12.57;41.39
13013;BME280;22580;57.670;12.006;2023-04-06T01:45:26;101836.06;;;12.08;42.12
13013;BME280;22580;57.670;12.006;2023-04-06T01:47:55;101869.25;;;12.50;41.29
13013;BME280;22580;57.670;12.006;2023-04-06T01:50:27;101855.47;;;11.98;42.42
13013;BME280;22580;57.670;12.006;2023-04-06T01:52:56;101817.41;;;11.61;42.70
13013;BME280;22580;57.670;12.006;2023-04-06T01:55:26;101818.38;;;11.44;42.90
13013;BME280;22580;57.670;12.006;2023-04-06T01:57:53;101863.09;;;11.74;43.13
13013;BME280;22580;57.670;12.006;2023-04-06T02:00:37;101857.34;;;11.03;44.49
13013;BME280;22580;57.670;12.006;2023-04-06T02:03:04;101859.69;;;11.09;44.61
13013;BME280;22580;57.670;12.006;2023-04-06T02:05:33;101864.16;;;11.40;44.31
13013;BME280;22580;57.670;12.006;2023-04-06T02:08:07;101852.06;;;11.33;44.66
13013;BME280;22580;57.670;12.006;2023-04-06T02:10:35;101866.13;;;11.68;43.93
13013;BME280;22580;57.670;12.006;2023-04-06T02:13:05;101845.75;;;11.81;43.54
13013;BME280;22580;57.670;12.006;2023-04-06T02:15:37;101779.91;;;11.61;42.97
13013;BME280;22580;57.670;12.006;2023-04-06T02:18:06;101847.28;;;11.85;43.39
13013;BME280;22580;57.670;12.006;2023-04-06T02:20:38;101855.91;;;11.90;43.25
13013;BME280;22580;57.670;12.006;2023-04-06T02:23:07;101825.97;;;11.52;43.65
13013;BME280;22580;57.670;12.006;2023-04-06T02:25:40;101839.41;;;11.21;44.97
13013;BME280;22580;57.670;12.006;2023-04-06T02:28:08;101858.88;;;11.38;45.05
13013;BME280;22580;57.670;12.006;2023-04-06T02:30:37;101852.84;;;11.35;44.85
13013;BME280;22580;57.670;12.006;2023-04-06T02:33:04;101847.34;;;11.22;44.96
13013;BME280;22580;57.670;12.006;2023-04-06T02:35:38;101860.38;;;11.12;45.14
13013;BME280;22580;57.670;12.006;2023-04-06T02:38:07;101860.59;;;10.92;45.94
13013;BME280;22580;57.670;12.006;2023-04-06T02:40:40;101845.03;;;10.67;46.27
13013;BME280;22580;57.670;12.006;2023-04-06T02:43:15;101812.34;;;10.78;46.21
13013;BME280;22580;57.670;12.006;2023-04-06T02:45:48;101850.84;;;11.38;45.73
13013;BME280;22580;57.670;12.006;2023-04-06T02:48:16;101844.09;;;11.47;45.07
13013;BME280;22580;57.670;12.006;2023-04-06T02:50:46;101854.56;;;11.36;45.24
13013;BME280;22580;57.670;12.006;2023-04-06T02:53:16;101841.34;;;11.48;45.27
13013;BME280;22580;57.670;12.006;2023-04-06T02:55:47;101842.47;;;11.29;45.61
13013;BME280;22580;57.670;12.006;2023-04-06T02:58:18;101792.25;;;11.02;45.70
13013;BME280;22580;57.670;12.006;2023-04-06T03:00:47;101856.28;;;11.37;45.78
13013;BME280;22580;57.670;12.006;2023-04-06T03:03:17;101779.56;;;11.22;44.99
13013;BME280;22580;57.670;12.006;2023-04-06T03:05:44;101849.63;;;11.44;45.43
13013;BME280;22580;57.670;12.006;2023-04-06T03:08:20;101854.81;;;11.47;45.16
13013;BME280;22580;57.670;12.006;2023-04-06T03:11:06;101852.50;;;11.09;46.78
13013;BME280;22580;57.670;12.006;2023-04-06T03:13:39;101832.94;;;11.25;45.85
13013;BME280;22580;57.670;12.006;2023-04-06T03:16:06;101863.97;;;11.59;45.76
13013;BME280;22580;57.670;12.006;2023-04-06T03:18:36;101764.91;;;10.81;45.50
13013;BME280;22580;57.670;12.006;2023-04-06T03:21:07;101864.97;;;11.26;46.32
13013;BME280;22580;57.670;12.006;2023-04-06T03:23:38;101824.22;;;11.21;45.40
13013;BME280;22580;57.670;12.006;2023-04-06T03:26:07;101836.72;;;11.05;46.30
13013;BME280;22580;57.670;12.006;2023-04-06T03:28:37;101862.13;;;10.80;46.62
13013;BME280;22580;57.670;12.006;2023-04-06T03:31:07;101864.66;;;10.83;47.19
13013;BME280;22580;57.670;12.006;2023-04-06T03:33:37;101818.16;;;10.03;48.39
13013;BME280;22580;57.670;12.006;2023-04-06T03:36:07;101864.16;;;10.93;47.28
13013;BME280;22580;57.670;12.006;2023-04-06T03:38:34;101866.53;;;10.81;47.78
13013;BME280;22580;57.670;12.006;2023-04-06T03:41:09;101871.50;;;11.36;46.35
13013;BME280;22580;57.670;12.006;2023-04-06T03:43:38;101872.19;;;11.40;45.84
13013;BME280;22580;57.670;12.006;2023-04-06T03:46:06;101877.03;;;11.18;46.33
13013;BME280;22580;57.670;12.006;2023-04-06T03:48:33;101869.06;;;11.47;46.05
13013;BME280;22580;57.670;12.006;2023-04-06T03:51:00;101883.59;;;11.59;45.59
13013;BME280;22580;57.670;12.006;2023-04-06T03:53:27;101873.66;;;11.77;44.86
13013;BME280;22580;57.670;12.006;2023-04-06T03:55:55;101855.94;;;11.27;45.46
13013;BME280;22580;57.670;12.006;2023-04-06T03:58:35;101883.13;;;11.67;45.12
13013;BME280;22580;57.670;12.006;2023-04-06T04:01:02;101874.34;;;11.65;45.31
13013;BME280;22580;57.670;12.006;2023-04-06T04:03:30;101871.91;;;11.44;45.11
13013;BME280;22580;57.670;12.006;2023-04-06T04:05:59;101879.97;;;11.44;45.68
13013;BME280;22580;57.670;12.006;2023-04-06T04:08:26;101879.44;;;11.54;45.33
13013;BME280;22580;57.670;12.006;2023-04-06T04:10:53;101874.00;;;11.39;45.88
13013;BME280;22580;57.670;12.006;2023-04-06T04:13:39;101882.53;;;10.66;47.14
13013;BME280;22580;57.670;12.006;2023-04-06T04:16:13;101870.59;;;10.23;48.27
13013;BME280;22580;57.670;12.006;2023-04-06T04:18:44;101892.38;;;9.96;49.78
13013;BME280;22580;57.670;12.006;2023-04-06T04:21:16;101818.69;;;10.09;48.43
13013;BME280;22580;57.670;12.006;2023-04-06T04:23:49;101883.78;;;10.26;48.82
13013;BME280;22580;57.670;12.006;2023-04-06T04:26:18;101884.63;;;10.43;48.35
13013;BME280;22580;57.670;12.006;2023-04-06T04:28:49;101844.63;;;9.90;49.13
13013;BME280;22580;57.670;12.006;2023-04-06T04:31:16;101869.56;;;10.58;48.40
13013;BME280;22580;57.670;12.006;2023-04-06T04:33:45;101870.59;;;10.56;48.40
13013;BME280;22580;57.670;12.006;2023-04-06T04:36:14;101869.09;;;10.34;49.22
13013;BME280;22580;57.670;12.006;2023-04-06T04:38:47;101880.97;;;10.62;48.56
13013;BME280;22580;57.670;12.006;2023-04-06T04:41:18;101874.88;;;10.75;47.92
13013;BME280;22580;57.670;12.006;2023-04-06T04:43:46;101870.63;;;11.04;47.60
13013;BME280;22580;57.670;12.006;2023-04-06T04:46:16;101857.31;;;10.87;47.54
13013;BME280;22580;57.670;12.006;2023-04-06T04:48:47;101856.13;;;10.93;47.25
13013;BME280;22580;57.670;12.006;2023-04-06T04:51:17;101866.16;;;11.05;47.28
13013;BME280;22580;57.670;12.006;2023-04-06T04:53:46;101885.75;;;10.72;48.61
13013;BME280;22580;57.670;12.006;2023-04-06T04:56:13;101895.88;;;10.33;49.89
13013;BME280;22580;57.670;12.006;2023-04-06T04:58:40;101888.06;;;10.63;49.44
13013;BME280;22580;57.670;12.006;2023-04-06T05:01:08;101856.44;;;10.54;49.58
13013;BME280;22580;57.670;12.006;2023-04-06T05:03:37;101891.47;;;10.82;49.44
13013;BME280;22580;57.670;12.006;2023-04-06T05:06:08;101870.56;;;10.73;49.42
13013;BME280;22580;57.670;12.006;2023-04-06T05:08:36;101879.34;;;10.92;48.52
13013;BME280;22580;57.670;12.006;2023-04-06T05:11:06;101898.34;;;11.03;48.79
13013;BME280;22580;57.670;12.006;2023-04-06T05:13:35;101879.09;;;11.12;48.08
13013;BME280;22580;57.670;12.006;2023-04-06T05:16:04;101880.13;;;10.94;48.42
13013;BME280;22580;57.670;12.006;2023-04-06T05:18:36;101865.38;;;10.70;49.14
13013;BME280;22580;57.670;12.006;2023-04-06T05:21:07;101818.06;;;10.55;48.88
13013;BME280;22580;57.670;12.006;2023-04-06T05:23:40;101901.19;;;10.67;50.11
13013;BME280;22580;57.670;12.006;2023-04-06T05:26:17;101897.56;;;10.68;50.24
13013;BME280;22580;57.670;12.006;2023-04-06T05:28:47;101894.34;;;10.95;49.80
13013;BME280;22580;57.670;12.006;2023-04-06T05:31:14;101879.72;;;11.18;49.26
13013;BME280;22580;57.670;12.006;2023-04-06T05:33:47;101881.78;;;11.12;49.19
13013;BME280;22580;57.670;12.006;2023-04-06T05:36:16;101892.72;;;10.92;50.09
13013;BME280;22580;57.670;12.006;2023-04-06T05:38:48;101888.75;;;10.99;50.08
13013;BME280;22580;57.670;12.006;2023-04-06T05:41:17;101891.09;;;11.37;49.37
13013;BME280;22580;57.670;12.006;2023-04-06T05:43:47;101897.50;;;11.50;49.02
13013;BME280;22580;57.670;12.006;2023-04-06T05:46:18;101892.03;;;11.52;48.86
13013;BME280;22580;57.670;12.006;2023-04-06T05:48:47;101894.38;;;11.42;48.99
13013;BME280;22580;57.670;12.006;2023-04-06T05:51:13;101874.97;;;11.23;49.58
13013;BME280;22580;57.670;12.006;2023-04-06T05:53:45;101884.44;;;11.60;49.19
13013;BME280;22580;57.670;12.006;2023-04-06T05:56:12;101894.03;;;11.48;49.84
13013;BME280;22580;57.670;12.006;2023-04-06T05:58:48;101899.13;;;11.37;50.48
13013;BME280;22580;57.670;12.006;2023-04-06T06:01:16;101862.84;;;10.84;51.19
13013;BME280;22580;57.670;12.006;2023-04-06T06:03:47;101905.78;;;11.30;51.21
13013;BME280;22580;57.670;12.006;2023-04-06T06:06:14;101897.56;;;11.64;50.26
13013;BME280;22580;57.670;12.006;2023-04-06T06:08:41;101900.50;;;11.28;50.81
13013;BME280;22580;57.670;12.006;2023-04-06T06:11:17;101895.88;;;10.83;52.21
13013;BME280;22580;57.670;12.006;2023-04-06T06:13:46;101891.09;;;11.68;50.44
13013;BME280;22580;57.670;12.006;2023-04-06T06:16:27;101902.25;;;11.45;50.93
13013;BME280;22580;57.670;12.006;2023-04-06T06:18:57;101906.81;;;11.59;50.28
13013;BME280;22580;57.670;12.006;2023-04-06T06:21:24;101893.00;;;11.50;50.60
13013;BME280;22580;57.670;12.006;2023-04-06T06:23:54;101898.09;;;11.39;50.79
13013;BME280;22580;57.670;12.006;2023-04-06T06:26:22;101892.31;;;11.47;50.42
13013;BME280;22580;57.670;12.006;2023-04-06T06:28:57;101896.09;;;11.27;51.54
13013;BME280;22580;57.670;12.006;2023-04-06T06:31:24;101902.41;;;11.73;50.47
13013;BME280;22580;57.670;12.006;2023-04-06T06:33:58;101870.44;;;11.55;50.00
13013;BME280;22580;57.670;12.006;2023-04-06T06:36:29;101907.34;;;11.49;50.68
13013;BME280;22580;57.670;12.006;2023-04-06T06:38:57;101901.97;;;11.65;50.42
13013;BME280;22580;57.670;12.006;2023-04-06T06:41:25;101905.88;;;11.91;50.10
13013;BME280;22580;57.670;12.006;2023-04-06T06:43:52;101904.63;;;12.12;49.92
13013;BME280;22580;57.670;12.006;2023-04-06T06:46:27;101817.91;;;11.68;49.91
13013;BME280;22580;57.670;12.006;2023-04-06T06:48:58;101878.56;;;11.85;49.79
13013;BME280;22580;57.670;12.006;2023-04-06T06:51:28;101897.31;;;11.85;50.43
13013;BME280;22580;57.670;12.006;2023-04-06T06:53:57;101911.75;;;11.98;50.72
13013;BME280;22580;57.670;12.006;2023-04-06T06:56:27;101891.06;;;12.00;50.70
13013;BME280;22580;57.670;12.006;2023-04-06T06:59:00;101907.28;;;12.12;50.88
13013;BME280;22580;57.670;12.006;2023-04-06T07:01:29;101910.50;;;12.33;50.21
13013;BME280;22580;57.670;12.006;2023-04-06T07:03:57;101911.25;;;12.35;50.27
13013;BME280;22580;57.670;12.006;2023-04-06T07:06:33;101913.25;;;12.32;50.30
13013;BME280;22580;57.670;12.006;2023-04-06T07:09:08;101916.06;;;12.44;50.91
13013;BME280;22580;57.670;12.006;2023-04-06T07:11:37;101910.50;;;12.33;51.75
13013;BME280;22580;57.670;12.006;2023-04-06T07:14:06;101909.63;;;12.33;50.93
13013;BME280;22580;57.670;12.006;2023-04-06T07:16:33;101916.84;;;12.02;52.53
13013;BME280;22580;57.670;12.006;2023-04-06T07:19:06;101912.59;;;12.28;52.57
13013;BME280;22580;57.670;12.006;2023-04-06T07:21:38;101911.09;;;12.08;53.18
13013;BME280;22580;57.670;12.006;2023-04-06T07:24:08;101906.88;;;12.48;52.59
13013;BME280;22580;57.670;12.006;2023-04-06T07:26:37;101882.22;;;12.28;52.59
13013;BME280;22580;57.670;12.006;2023-04-06T07:29:07;101912.38;;;12.61;52.29
13013;BME280;22580;57.670;12.006;2023-04-06T07:31:36;101896.63;;;12.41;52.62
13013;BME280;22580;57.670;12.006;2023-04-06T07:34:10;101912.44;;;12.15;53.42
13013;BME280;22580;57.670;12.006;2023-04-06T07:36:50;101881.31;;;11.99;53.57
13013;BME280;22580;57.670;12.006;2023-04-06T07:39:29;101910.06;;;12.11;53.81
13013;BME280;22580;57.670;12.006;2023-04-06T07:41:59;101927.91;;;11.80;55.37
13013;BME280;22580;57.670;12.006;2023-04-06T07:44:27;101910.78;;;12.29;54.18
13013;BME280;22580;57.670;12.006;2023-04-06T07:46:57;101886.06;;;11.94;54.38
13013;BME280;22580;57.670;12.006;2023-04-06T07:49:30;101920.91;;;11.94;56.07
13013;BME280;22580;57.670;12.006;2023-04-06T07:52:08;101898.94;;;12.17;55.00
13013;BME280;22580;57.670;12.006;2023-04-06T07:54:37;101878.00;;;12.24;54.41
13013;BME280;22580;57.670;12.006;2023-04-06T07:57:04;101924.25;;;12.27;55.26
13013;BME280;22580;57.670;12.006;2023-04-06T07:59:31;101928.41;;;12.33;55.21
13013;BME280;22580;57.670;12.006;2023-04-06T08:02:08;101892.91;;;12.13;55.09
13013;BME280;22580;57.670;12.006;2023-04-06T08:04:37;101920.56;;;12.14;55.92
13013;BME280;22580;57.670;12.006;2023-04-06T08:07:04;101919.59;;;12.01;55.91
13013;BME280;22580;57.670;12.006;2023-04-06T08:09:35;101908.44;;;12.23;55.52
13013;BME280;22580;57.670;12.006;2023-04-06T08:12:04;101849.19;;;12.27;54.87
13013;BME280;22580;57.670;12.006;2023-04-06T08:14:31;101929.31;;;12.47;56.18
13013;BME280;22580;57.670;12.006;2023-04-06T08:16:58;101922.78;;;12.52;55.91
13013;BME280;22580;57.670;12.006;2023-04-06T08:19:27;101922.72;;;12.53;55.97
13013;BME280;22580;57.670;12.006;2023-04-06T08:21:56;101926.94;;;12.57;55.95
13013;BME280;22580;57.670;12.006;2023-04-06T08:24:38;101924.25;;;12.57;56.52
13013;BME280;22580;57.670;12.006;2023-04-06T08:27:07;101916.41;;;12.68;55.46
13013;BME280;22580;57.670;12.006;2023-04-06T08:29:40;101936.81;;;12.71;56.07
13013;BME280;22580;57.670;12.006;2023-04-06T08:32:18;101941.53;;;12.82;55.82
13013;BME280;22580;57.670;12.006;2023-04-06T08:34:45;101938.47;;;12.88;56.21
13013;BME280;22580;57.670;12.006;2023-04-06T08:37:13;101944.72;;;13.17;55.47
13013;BME280;22580;57.670;12.006;2023-04-06T08:39:48;101927.44;;;13.06;55.34
13013;BME280;22580;57.670;12.006;2023-04-06T08:42:19;101931.75;;;13.09;55.50
13013;BME280;22580;57.670;12.006;2023-04-06T08:44:47;101941.06;;;13.18;55.35
13013;BME280;22580;57.670;12.006;2023-04-06T08:47:15;101951.13;;;13.14;55.73
13013;BME280;22580;57.670;12.006;2023-04-06T08:49:44;101945.50;;;13.19;55.00
13013;BME280;22580;57.670;12.006;2023-04-06T08:52:11;101938.38;;;13.18;55.48
13013;BME280;22580;57.670;12.006;2023-04-06T08:54:38;101946.44;;;13.18;55.70
13013;BME280;22580;57.670;12.006;2023-04-06T08:57:07;101951.78;;;12.75;57.83
13013;BME280;22580;57.670;12.006;2023-04-06T08:59:37;101958.53;;;13.25;56.95
13013;BME280;22580;57.670;12.006;2023-04-06T09:02:08;101933.59;;;13.23;56.80
13013;BME280;22580;57.670;12.006;2023-04-06T09:04:56;101948.31;;;13.01;58.69
13013;BME280;22580;57.670;12.006;2023-04-06T09:07:23;101939.25;;;13.32;58.89
13013;BME280;22580;57.670;12.006;2023-04-06T09:09:53;101960.28;;;13.81;58.42
13013;BME280;22580;57.670;12.006;2023-04-06T09:12:28;101946.28;;;13.76;59.00
13013;BME280;22580;57.670;12.006;2023-04-06T09:14:56;101956.03;;;14.04;58.45
13013;BME280;22580;57.670;12.006;2023-04-06T09:17:29;101958.94;;;14.01;58.47
13013;BME280;22580;57.670;12.006;2023-04-06T09:19:58;101941.19;;;13.71;59.51
13013;BME280;22580;57.670;12.006;2023-04-06T09:22:37;101959.34;;;13.95;59.34
13013;BME280;22580;57.670;12.006;2023-04-06T09:25:05;101969.75;;;10.51;78.39
13013;BME280;22580;57.670;12.006;2023-04-06T09:27:48;101929.31;;;11.88;75.29
13013;BME280;22580;57.670;12.006;2023-04-06T09:30:18;101964.81;;;12.37;74.17
13013;BME280;22580;57.670;12.006;2023-04-06T09:32:49;101961.88;;;13.42;69.60
13013;BME280;22580;57.670;12.006;2023-04-06T09:35:19;101967.03;;;13.87;66.57
13013;BME280;22580;57.670;12.006;2023-04-06T09:37:50;101965.13;;;13.89;66.55
13013;BME280;22580;57.670;12.006;2023-04-06T09:40:27;101942.03;;;13.31;68.87
13013;BME280;22580;57.670;12.006;2023-04-06T09:42:57;101976.78;;;12.15;75.88
13013;BME280;22580;57.670;12.006;2023-04-06T09:45:29;101944.75;;;12.28;76.17
13013;BME280;22580;57.670;12.006;2023-04-06T09:48:17;101974.75;;;12.35;75.29
13013;BME280;22580;57.670;12.006;2023-04-06T09:50:47;101941.72;;;12.04;74.60
13013;BME280;22580;57.670;12.006;2023-04-06T09:53:19;101930.69;;;13.11;73.05
13013;BME280;22580;57.670;12.006;2023-04-06T09:55:49;101976.97;;;13.86;70.19
13013;BME280;22580;57.670;12.006;2023-04-06T09:58:36;101950.31;;;13.96;67.69
13013;BME280;22580;57.670;12.006;2023-04-06T10:01:09;101949.88;;;14.94;65.09
13013;BME280;22580;57.670;12.006;2023-04-06T10:03:48;101975.47;;;14.49;66.43
13013;BME280;22580;57.670;12.006;2023-04-06T10:06:31;101919.31;;;13.77;69.82
13013;BME280;22580;57.670;12.006;2023-04-06T10:09:17;101963.91;;;14.99;65.71
13013;BME280;22580;57.670;12.006;2023-04-06T10:11:48;101967.09;;;13.72;71.22
13013;BME280;22580;57.670;12.006;2023-04-06T10:14:17;101973.28;;;14.14;70.76
13013;BME280;22580;57.670;12.006;2023-04-06T10:16:48;101972.56;;;12.71;76.62
13013;BME280;22580;57.670;12.006;2023-04-06T10:19:32;101978.28;;;13.52;74.51
13013;BME280;22580;57.670;12.006;2023-04-06T10:22:21;101884.19;;;13.39;72.71
13013;BME280;22580;57.670;12.006;2023-04-06T10:24:55;101973.28;;;13.87;72.50
13013;BME280;22580;57.670;12.006;2023-04-06T10:27:29;101949.44;;;13.95;72.94
13013;BME280;22580;57.670;12.006;2023-04-06T10:30:09;101933.38;;;14.08;70.60
13013;BME280;22580;57.670;12.006;2023-04-06T10:32:39;101936.41;;;14.43;70.81
13013;BME280;22580;57.670;12.006;2023-04-06T10:35:07;101962.59;;;14.66;71.78
13013;BME280;22580;57.670;12.006;2023-04-06T10:37:50;101954.63;;;14.90;70.35
13013;BME280;22580;57.670;12.006;2023-04-06T10:40:26;101966.38;;;15.77;68.14
13013;BME280;22580;57.670;12.006;2023-04-06T10:43:07;101941.94;;;15.91;66.59
13013;BME280;22580;57.670;12.006;2023-04-06T10:45:39;101935.94;;;15.87;66.20
13013;BME280;22580;57.670;12.006;2023-04-06T10:48:20;101974.50;;;16.00;65.76
13013;BME280;22580;57.670;12.006;2023-04-06T10:50:59;101945.31;;;15.82;65.17
13013;BME280;22580;57.670;12.006;2023-04-06T10:53:27;101972.03;;;16.21;64.17
13013;BME280;22580;57.670;12.006;2023-04-06T10:55:58;101973.69;;;16.35;64.02
13013;BME280;22580;57.670;12.006;2023-04-06T10:58:27;101966.41;;;16.24;63.72
13013;BME280;22580;57.670;12.006;2023-04-06T11:00:57;101943.06;;;16.58;62.57
13013;BME280;22580;57.670;12.006;2023-04-06T11:03:25;101967.44;;;16.34;65.09
13013;BME280;22580;57.670;12.006;2023-04-06T11:05:52;101955.13;;;17.23;63.84
13013;BME280;22580;57.670;12.006;2023-04-06T11:08:28;101927.50;;;16.62;59.66
13013;BME280;22580;57.670;12.006;2023-04-06T11:11:08;101972.72;;;16.71;64.52
13013;BME280;22580;57.670;12.006;2023-04-06T11:13:41;101951.84;;;16.73;58.54
13013;BME280;22580;57.670;12.006;2023-04-06T11:16:18;101911.09;;;16.65;61.96
13013;BME280;22580;57.670;12.006;2023-04-06T11:18:58;101953.63;;;17.19;62.44
13013;BME280;22580;57.670;12.006;2023-04-06T11:21:41;101961.13;;;17.04;59.61
13013;BME280;22580;57.670;12.006;2023-04-06T11:24:19;101932.72;;;16.87;59.63
13013;BME280;22580;57.670;12.006;2023-04-06T11:26:50;101960.47;;;17.56;57.03
13013;BME280;22580;57.670;12.006;2023-04-06T11:29:27;101905.41;;;17.57;54.87
13013;BME280;22580;57.670;12.006;2023-04-06T11:32:01;101959.75;;;17.65;53.57
13013;BME280;22580;57.670;12.006;2023-04-06T11:34:39;101954.78;;;17.93;52.56
13013;BME280;22580;57.670;12.006;2023-04-06T11:37:07;101968.19;;;18.26;51.61
13013;BME280;22580;57.670;12.006;2023-04-06T11:39:38;101969.47;;;18.43;50.19
13013;BME280;22580;57.670;12.006;2023-04-06T11:42:07;101964.84;;;18.02;47.16
13013;BME280;22580;57.670;12.006;2023-04-06T11:44:53;101937.31;;;17.20;47.31
13013;BME280;22580;57.670;12.006;2023-04-06T11:47:32;101932.88;;;17.19;49.39
13013;BME280;22580;57.670;12.006;2023-04-06T11:50:09;101965.41;;;17.07;48.00
13013;BME280;22580;57.670;12.006;2023-04-06T11:52:38;101957.81;;;17.12;49.97
13013;BME280;22580;57.670;12.006;2023-04-06T11:55:14;101969.91;;;16.84;47.17
13013;BME280;22580;57.670;12.006;2023-04-06T11:57:46;101952.88;;;16.94;45.18
13013;BME280;22580;57.670;12.006;2023-04-06T12:00:17;101996.00;;;17.18;46.18
13013;BME280;22580;57.670;12.006;2023-04-06T12:02:49;101947.44;;;16.83;45.21
13013;BME280;22580;57.670;12.006;2023-04-06T12:05:19;101963.44;;;17.76;43.47
13013;BME280;22580;57.670;12.006;2023-04-06T12:07:47;101943.44;;;17.22;44.92
13013;BME280;22580;57.670;12.006;2023-04-06T12:10:14;101910.22;;;17.54;42.14
13013;BME280;22580;57.670;12.006;2023-04-06T12:12:41;101924.84;;;17.51;42.68
13013;BME280;22580;57.670;12.006;2023-04-06T12:15:21;101970.41;;;18.53;39.91
13013;BME280;22580;57.670;12.006;2023-04-06T12:17:49;101966.44;;;18.89;38.59
13013;BME280;22580;57.670;12.006;2023-04-06T12:20:18;101960.56;;;19.15;36.37
13013;BME280;22580;57.670;12.006;2023-04-06T12:22:51;101964.38;;;19.12;35.05
13013;BME280;22580;57.670;12.006;2023-04-06T12:25:28;101932.72;;;16.76;39.16
13013;BME280;22580;57.670;12.006;2023-04-06T12:27:57;102000.50;;;16.84;40.88
13013;BME280;22580;57.670;12.006;2023-04-06T12:30:29;101978.28;;;17.92;37.88
13013;BME280;22580;57.670;12.006;2023-04-06T12:32:57;101970.97;;;18.15;36.54
13013;BME280;22580;57.670;12.006;2023-04-06T12:35:33;101986.09;;;18.18;37.71
13013;BME280;22580;57.670;12.006;2023-04-06T12:38:07;101949.56;;;17.47;37.47
13013;BME280;22580;57.670;12.006;2023-04-06T12:40:39;101952.09;;;17.93;35.40
13013;BME280;22580;57.670;12.006;2023-04-06T12:43:08;101973.13;;;17.56;37.49
13013;BME280;22580;57.670;12.006;2023-04-06T12:45:37;102005.25;;;15.98;39.06
13013;BME280;22580;57.670;12.006;2023-04-06T12:48:08;101989.97;;;17.59;37.61
13013;BME280;22580;57.670;12.006;2023-04-06T12:50:37;101961.75;;;18.91;34.43
13013;BME280;22580;57.670;12.006;2023-04-06T12:53:07;101973.84;;;19.18;34.07
13013;BME280;22580;57.670;12.006;2023-04-06T12:55:36;101977.03;;;19.32;33.74
13013;BME280;22580;57.670;12.006;2023-04-06T12:58:08;101981.94;;;18.34;32.22
13013;BME280;22580;57.670;12.006;2023-04-06T13:00:37;101971.00;;;18.89;31.55
13013;BME280;22580;57.670;12.006;2023-04-06T13:03:08;101991.03;;;16.55;35.92